Stow, MA (01775)

4:59 AM EST on November 23, 2014 (GMT -0500)
6B6 | Change Station
CLOSE
Current Station
Personal Weather Station
Location: Stow, MA
Elevation: 268 ft
Nearby Weather Stations

Elev 268 ft 42.46 °N, 71.52 °W | Updated 52 seconds ago

Mostly Cloudy
Mostly Cloudy
42.5 °F
Feels Like 42 °F
N
0.0
Wind Variable Wind from WSW
Gusts 2.0 mph

Today
High -- | Low -- °F
--% Chance of Precip.
Yesterday
High -- | Low -- °F
Precip. -- in
6:46 AM 4:17 PM
New Moon, 1% visible
Pressure 30.11 in
Visibility 10.0 miles
Clouds Mostly Cloudy 11000 ft
Windchill 42 °F
Dew Point 42 °F
Humidity 100%
Rainfall 0.00 in
Snow Depth Not available.
UV 0 out of 12
Pollen .10 out of 12
Air Quality Not available.
Flu Activity Not available.
METAR KBED 230856Z AUTO 22006KT 10SM BKN110 06/M04 A3006 RMK AO2 SLP195 T00611039 51007 TSNO

More Conditions Fewer Conditions

Pressure 30.11 in
Visibility 10.0 miles
Clouds Mostly Cloudy 11000 ft
Windchill 42 °F
Dew Point 42 °F
Humidity 100%
Rainfall 0.00 in
Snow Depth Not available.
UV 0 out of 12
Pollen .10 out of 12
Air Quality Not available.
Flu Activity Not available.
METAR KBED 230856Z AUTO 22006KT 10SM BKN110 06/M04 A3006 RMK AO2 SLP195 T00611039 51007 TSNO

More Conditions Fewer Conditions

10-Day Weather Forecast

Almanac

Astronomy

Nov. 23, 2014 Rise Set
Actual Time
Civil Twilight
Nautical Twilight
Astronomical Twilight
Moon
Length of Visible Light
Length of Day
Tomorrow will be .
, % of the Moon is Illuminated

Today's Extremes

State Highs State Lows

Community

WunderPhotos

Upload Photos

1,773,032 photos uploaded!

WunderBlogs® & News

Nearby

Air Quality

  Air Quality AQ Index Pollutant
Not available.

Snow Depth

Station Depth Elevation

Earthquake Activity

City Distance Mag. Time & Date
Minimum magnitude displayed is 2.5.

Coastal Water Temperatures

Place Temperature

Nearby Weather Stations